Time;durP1;ratioP1;P1;durP2;ratioP2;P2;SDS_P1;SDS_P2;PMS_P1;PMS_P2;Temp;Humidity;BMP_temperature;BMP_pressure;BME280_temperature;BME280_humidity;BME280_pressure;Samples;Min_cycle;Max_cycle;Signal;HPM_P1;HPM_P2
2023/07/22 00:02:00;;;;;;;3.63;2.87;;;22.50;66.10;;;;;;5034360;28;20208;-71
2023/07/22 00:04:30;;;;;;;2.63;2.43;;;22.30;66.60;;;;;;5033971;28;20547;-71
2023/07/22 00:06:57;;;;;;;3.53;2.13;;;22.20;66.90;;;;;;5034515;28;20241;-71
2023/07/22 00:09:24;;;;;;;2.43;2.23;;;22.20;67.20;;;;;;5034530;28;20685;-72
2023/07/22 00:11:51;;;;;;;2.20;1.93;;;22.20;67.40;;;;;;5035335;28;20281;-72
2023/07/22 00:14:19;;;;;;;4.47;2.13;;;22.10;67.40;;;;;;5034137;28;20260;-72
2023/07/22 00:16:46;;;;;;;2.83;2.57;;;22.10;67.60;;;;;;5035059;28;20245;-72
2023/07/22 00:19:14;;;;;;;2.93;2.00;;;22.10;67.70;;;;;;5052329;28;20270;-72
2023/07/22 00:21:40;;;;;;;4.03;2.63;;;22.10;67.80;;;;;;5047967;28;20256;-72
2023/07/22 00:24:08;;;;;;;4.67;3.03;;;22.10;68.00;;;;;;5035948;28;20225;-70
2023/07/22 00:26:34;;;;;;;2.77;2.47;;;22.00;67.90;;;;;;5057814;28;20210;-72
2023/07/22 00:29:02;;;;;;;3.23;2.20;;;22.00;68.60;;;;;;5058300;28;20266;-73
2023/07/22 00:31:30;;;;;;;2.50;2.30;;;22.00;68.10;;;;;;5035033;28;20333;-71
2023/07/22 00:33:57;;;;;;;2.50;2.30;;;22.00;68.20;;;;;;5033447;28;20261;-71
2023/07/22 00:36:24;;;;;;;2.63;2.43;;;22.00;68.20;;;;;;5033695;28;20321;-71
2023/07/22 00:38:52;;;;;;;3.03;2.17;;;21.90;68.40;;;;;;5033543;28;20635;-71
2023/07/22 00:41:20;;;;;;;3.20;2.03;;;21.90;68.70;;;;;;5033605;28;20218;-72
2023/07/22 00:43:46;;;;;;;5.40;2.23;;;21.90;68.80;;;;;;5048891;28;20586;-71
2023/07/22 00:46:13;;;;;;;2.43;2.00;;;21.90;68.60;;;;;;5053276;28;20236;-72
2023/07/22 00:48:42;;;;;;;2.60;2.07;;;21.90;68.70;;;;;;5053452;28;20245;-71
2023/07/22 00:51:09;;;;;;;2.47;2.23;;;21.90;68.90;;;;;;5053629;28;20210;-71
2023/07/22 00:53:36;;;;;;;2.50;2.13;;;21.90;68.70;;;;;;5053144;28;20202;-72
2023/07/22 00:56:03;;;;;;;2.63;2.20;;;21.90;68.60;;;;;;5053009;28;20232;-71
2023/07/22 00:58:31;;;;;;;2.90;2.20;;;22.00;68.70;;;;;;5053129;28;20265;-72
2023/07/22 01:00:58;;;;;;;3.73;2.40;;;22.00;68.30;;;;;;5053287;28;20205;-71
2023/07/22 01:03:25;;;;;;;2.80;2.33;;;22.00;68.30;;;;;;5052673;28;20808;-72
2023/07/22 01:05:56;;;;;;;2.50;2.30;;;22.00;68.20;;;;;;5053122;28;20275;-72
2023/07/22 01:08:23;;;;;;;2.67;2.40;;;22.00;68.20;;;;;;5053597;28;20298;-71
2023/07/22 01:10:50;;;;;;;4.13;2.07;;;22.00;68.30;;;;;;5061798;28;20190;-71
2023/07/22 01:13:17;;;;;;;2.80;2.50;;;22.00;68.30;;;;;;5054052;28;20208;-71
2023/07/22 01:15:44;;;;;;;2.83;2.30;;;22.00;68.40;;;;;;5052357;28;20232;-72
2023/07/22 01:18:11;;;;;;;3.90;2.60;;;21.90;68.50;;;;;;5052699;28;20777;-72
2023/07/22 01:20:39;;;;;;;3.50;2.57;;;21.90;68.60;;;;;;5052140;28;20561;-72
2023/07/22 01:23:07;;;;;;;3.50;2.53;;;21.80;68.80;;;;;;5052778;28;20202;-71
2023/07/22 01:25:34;;;;;;;3.83;2.57;;;21.80;69.30;;;;;;5052738;28;20222;-72
2023/07/22 01:28:01;;;;;;;2.60;2.20;;;21.70;69.30;;;;;;5052378;28;20263;-71
2023/07/22 01:30:28;;;;;;;3.17;2.63;;;21.70;69.50;;;;;;5052684;28;20316;-71
2023/07/22 01:32:55;;;;;;;2.50;2.23;;;21.60;69.60;;;;;;5052567;28;20612;-71
2023/07/22 01:35:22;;;;;;;2.63;2.43;;;21.60;69.50;;;;;;5051809;28;20237;-72
2023/07/22 01:37:50;;;;;;;3.27;2.40;;;21.50;69.30;;;;;;5052719;28;20313;-72
2023/07/22 01:40:20;;;;;;;2.60;2.40;;;21.40;70.40;;;;;;5052748;28;20226;-72
2023/07/22 01:42:47;;;;;;;2.97;2.20;;;21.30;69.80;;;;;;5052167;28;20239;-71
2023/07/22 01:45:14;;;;;;;3.37;2.10;;;21.30;70.00;;;;;;5052119;28;20214;-71
2023/07/22 01:47:41;;;;;;;3.13;2.20;;;21.30;70.10;;;;;;5033827;28;20301;-71
2023/07/22 01:50:09;;;;;;;2.83;2.20;;;21.30;70.00;;;;;;5052599;28;20213;-71
2023/07/22 01:52:36;;;;;;;2.80;2.60;;;21.40;69.90;;;;;;5052571;28;20205;-72
2023/07/22 01:55:05;;;;;;;2.73;2.23;;;21.40;69.80;;;;;;5052129;28;20303;-71
2023/07/22 01:57:34;;;;;;;2.40;2.20;;;21.30;69.70;;;;;;5052447;28;20238;-71
2023/07/22 02:00:01;;;;;;;3.47;2.40;;;21.40;69.80;;;;;;5017010;28;20237;-71
2023/07/22 02:02:27;;;;;;;3.00;2.33;;;21.40;69.70;;;;;;5052213;28;20234;-71
2023/07/22 02:04:54;;;;;;;2.40;2.20;;;21.30;69.70;;;;;;5052000;28;20209;-71
2023/07/22 02:07:21;;;;;;;2.37;2.17;;;21.30;69.80;;;;;;5052451;28;20229;-71
2023/07/22 02:09:51;;;;;;;3.67;2.50;;;21.30;69.90;;;;;;5051925;28;20222;-71
2023/07/22 02:12:18;;;;;;;2.37;2.17;;;21.30;70.00;;;;;;5052714;28;20233;-71
2023/07/22 02:14:46;;;;;;;4.00;2.40;;;21.20;70.10;;;;;;5051581;28;20214;-71
2023/07/22 02:17:13;;;;;;;2.73;2.23;;;21.20;70.40;;;;;;5052239;28;20236;-72
2023/07/22 02:19:40;;;;;;;3.30;2.20;;;21.20;70.50;;;;;;5051864;28;20222;-71
2023/07/22 02:22:07;;;;;;;2.70;2.20;;;21.10;70.20;;;;;;5052356;28;20206;-71
2023/07/22 02:24:34;;;;;;;4.23;2.27;;;21.10;70.10;;;;;;5051301;28;20212;-71
2023/07/22 02:27:01;;;;;;;3.10;2.80;;;21.10;70.30;;;;;;5051945;28;20219;-71
2023/07/22 02:29:39;;;;;;;3.57;2.27;;;21.10;70.40;;;;;;5052096;28;20234;-71
2023/07/22 02:32:08;;;;;;;3.60;2.80;;;21.10;70.50;;;;;;5052110;28;20201;-71
2023/07/22 02:34:35;;;;;;;2.93;2.33;;;20.90;70.30;;;;;;5051768;28;20226;-72
2023/07/22 02:37:02;;;;;;;3.00;2.70;;;20.70;70.80;;;;;;5052185;28;20226;-71
2023/07/22 02:39:28;;;;;;;3.37;2.90;;;20.60;71.30;;;;;;5051995;28;20230;-72
2023/07/22 02:41:55;;;;;;;2.97;2.43;;;20.50;71.50;;;;;;5051719;28;20826;-71
2023/07/22 02:44:22;;;;;;;3.13;2.77;;;20.50;71.30;;;;;;5051522;28;20237;-71
2023/07/22 02:46:49;;;;;;;2.60;2.40;;;20.50;71.20;;;;;;5052293;28;20205;-71
2023/07/22 02:49:17;;;;;;;3.23;2.43;;;20.40;71.30;;;;;;5052154;28;20206;-70
2023/07/22 02:51:44;;;;;;;3.60;2.40;;;20.40;71.20;;;;;;5051910;28;20210;-72
2023/07/22 02:54:11;;;;;;;2.80;2.40;;;20.40;71.10;;;;;;5051346;28;20217;-71
2023/07/22 02:56:38;;;;;;;2.50;2.30;;;20.40;71.00;;;;;;5054559;28;20214;-72
2023/07/22 02:59:05;;;;;;;3.20;2.30;;;20.30;70.80;;;;;;5055569;28;20209;-72
2023/07/22 03:01:32;;;;;;;3.30;2.70;;;20.40;70.90;;;;;;5055263;28;20229;-72
2023/07/22 03:03:59;;;;;;;2.90;2.50;;;20.40;70.80;;;;;;5055146;28;20210;-72
2023/07/22 03:06:28;;;;;;;3.27;2.40;;;20.30;70.90;;;;;;5055155;28;20232;-72
2023/07/22 03:08:57;;;;;;;2.73;2.53;;;20.20;71.10;;;;;;5055235;28;20218;-72
2023/07/22 03:11:25;;;;;;;3.70;2.57;;;20.30;71.30;;;;;;5055334;28;20235;-72
2023/07/22 03:13:51;;;;;;;2.67;2.40;;;20.20;71.10;;;;;;5054819;28;20214;-72
2023/07/22 03:16:18;;;;;;;3.10;2.60;;;20.20;71.20;;;;;;5054941;28;20229;-72
2023/07/22 03:18:45;;;;;;;4.00;2.80;;;20.20;71.30;;;;;;5054981;28;20190;-72
2023/07/22 03:21:12;;;;;;;2.43;2.20;;;20.20;71.30;;;;;;5055040;28;20221;-72
2023/07/22 03:23:40;;;;;;;2.20;2.00;;;20.20;71.40;;;;;;5054683;28;20194;-71
2023/07/22 03:26:10;;;;;;;3.90;2.70;;;20.20;71.30;;;;;;5055050;28;20545;-72
2023/07/22 03:28:37;;;;;;;3.67;2.73;;;20.10;71.40;;;;;;5054714;28;20664;-72
2023/07/22 03:31:04;;;;;;;2.80;2.60;;;20.00;71.50;;;;;;5055076;28;20205;-71
2023/07/22 03:33:31;;;;;;;2.70;2.50;;;19.90;71.60;;;;;;5054987;28;20220;-72
2023/07/22 03:35:57;;;;;;;3.53;2.50;;;19.90;71.70;;;;;;5054671;28;20290;-72
2023/07/22 03:38:25;;;;;;;3.30;2.47;;;19.90;71.60;;;;;;5020643;28;20622;-72
2023/07/22 03:40:53;;;;;;;3.40;2.37;;;19.90;71.70;;;;;;5055234;28;20205;-72
2023/07/22 03:43:20;;;;;;;2.40;2.20;;;19.90;71.50;;;;;;5054450;28;20435;-72
2023/07/22 03:45:47;;;;;;;3.30;3.00;;;19.90;71.40;;;;;;5055574;28;20205;-72
2023/07/22 03:48:14;;;;;;;2.80;2.47;;;19.80;71.30;;;;;;5072862;28;20214;-72
2023/07/22 03:50:41;;;;;;;2.63;2.27;;;19.80;71.30;;;;;;5071561;28;20312;-72
2023/07/22 03:53:08;;;;;;;2.87;2.40;;;19.80;71.10;;;;;;5055493;28;20214;-72
2023/07/22 03:55:35;;;;;;;3.17;2.23;;;19.80;71.30;;;;;;5078546;28;20229;-72
2023/07/22 03:58:03;;;;;;;2.90;2.40;;;19.90;71.30;;;;;;5079277;28;20197;-73
2023/07/22 04:00:30;;;;;;;3.20;2.60;;;19.80;71.20;;;;;;5058815;28;20576;-72
2023/07/22 04:02:57;;;;;;;2.57;2.30;;;19.80;71.10;;;;;;5019498;28;20209;-72
2023/07/22 04:05:23;;;;;;;2.80;2.37;;;19.80;71.20;;;;;;5054016;28;20236;-72
2023/07/22 04:07:50;;;;;;;2.83;2.10;;;19.80;71.10;;;;;;5053827;28;20218;-72
2023/07/22 04:10:17;;;;;;;2.80;2.50;;;19.80;71.20;;;;;;5054068;28;20256;-72
2023/07/22 04:12:44;;;;;;;2.90;2.50;;;19.80;71.10;;;;;;5053814;28;20654;-72
2023/07/22 04:15:12;;;;;;;3.53;2.67;;;19.80;71.20;;;;;;5053141;28;20303;-72
2023/07/22 04:17:40;;;;;;;2.73;2.37;;;19.70;71.30;;;;;;5053968;28;20275;-72
2023/07/22 04:20:09;;;;;;;5.10;2.30;;;19.70;71.10;;;;;;5053699;28;20229;-71
2023/07/22 04:22:36;;;;;;;2.40;2.20;;;19.60;71.00;;;;;;5054016;28;20225;-72
2023/07/22 04:25:02;;;;;;;4.33;2.80;;;19.60;70.90;;;;;;5053111;28;20206;-71
2023/07/22 04:27:29;;;;;;;3.13;2.37;;;19.60;70.90;;;;;;5053829;28;20202;-71
2023/07/22 04:29:56;;;;;;;2.60;2.40;;;19.60;70.90;;;;;;5053875;28;20305;-72
2023/07/22 04:32:25;;;;;;;3.23;2.50;;;19.60;71.00;;;;;;5053496;28;20230;-72
2023/07/22 04:34:51;;;;;;;3.27;2.70;;;19.60;71.20;;;;;;5052953;28;20212;-72
2023/07/22 04:37:18;;;;;;;5.73;2.70;;;19.60;71.60;;;;;;5053555;28;20324;-71
2023/07/22 04:39:49;;;;;;;3.00;2.67;;;19.60;71.90;;;;;;5053292;28;20217;-72
2023/07/22 04:42:16;;;;;;;4.27;2.87;;;19.60;71.70;;;;;;5053539;28;20317;-72
2023/07/22 04:44:44;;;;;;;2.70;2.50;;;19.60;71.60;;;;;;5053094;28;20326;-72
2023/07/22 04:47:10;;;;;;;4.20;2.67;;;19.50;71.60;;;;;;5053408;28;20230;-72
2023/07/22 04:49:39;;;;;;;4.57;2.73;;;19.50;71.90;;;;;;5053135;28;20635;-72
2023/07/22 04:52:07;;;;;;;2.50;2.27;;;19.50;72.20;;;;;;5053400;28;20201;-71
2023/07/22 04:54:34;;;;;;;4.30;2.70;;;19.40;72.10;;;;;;5053199;28;20697;-72
2023/07/22 04:57:01;;;;;;;4.07;2.40;;;19.50;72.30;;;;;;5053224;28;20232;-72
2023/07/22 04:59:29;;;;;;;3.43;2.70;;;19.50;72.30;;;;;;5052886;28;20220;-72
2023/07/22 05:01:56;;;;;;;3.37;2.60;;;19.50;72.30;;;;;;5053411;28;20205;-72
2023/07/22 05:04:23;;;;;;;3.00;2.70;;;19.40;72.20;;;;;;5052803;28;20209;-72
2023/07/22 05:06:51;;;;;;;3.07;2.77;;;19.40;72.20;;;;;;5052637;28;20737;-72
2023/07/22 05:09:18;;;;;;;3.13;2.57;;;19.40;72.50;;;;;;5053170;28;20225;-72
2023/07/22 05:11:45;;;;;;;3.00;2.70;;;19.30;72.60;;;;;;5053331;28;20206;-72
2023/07/22 05:14:12;;;;;;;2.90;2.60;;;19.30;73.00;;;;;;5052355;28;20252;-72
2023/07/22 05:16:38;;;;;;;3.60;2.40;;;19.30;73.30;;;;;;5052654;28;20232;-72
2023/07/22 05:19:07;;;;;;;5.40;3.13;;;19.30;73.40;;;;;;5051923;28;20325;-72
2023/07/22 05:21:34;;;;;;;3.60;3.23;;;19.40;73.70;;;;;;5052640;28;20217;-72
2023/07/22 05:24:03;;;;;;;4.20;2.97;;;19.50;73.60;;;;;;5052573;28;20224;-72
2023/07/22 05:26:30;;;;;;;3.23;2.60;;;19.60;73.90;;;;;;5052809;28;20186;-72
2023/07/22 05:28:57;;;;;;;3.40;2.73;;;19.70;73.60;;;;;;5017719;28;20296;-72
2023/07/22 05:31:24;;;;;;;4.27;2.63;;;19.70;73.50;;;;;;5052977;28;20596;-72
2023/07/22 05:33:51;;;;;;;3.27;2.63;;;19.80;73.30;;;;;;5052267;28;20214;-72
2023/07/22 05:36:18;;;;;;;4.50;2.80;;;19.90;73.30;;;;;;5052525;28;20557;-72
2023/07/22 05:38:44;;;;;;;3.50;2.90;;;19.90;72.80;;;;;;5052778;28;20206;-71
2023/07/22 05:41:13;;;;;;;3.30;3.00;;;19.90;73.30;;;;;;5052444;28;20237;-72
2023/07/22 05:43:39;;;;;;;3.87;2.60;;;19.90;73.60;;;;;;5052158;28;20857;-71
2023/07/22 05:46:06;;;;;;;3.53;2.60;;;19.90;73.80;;;;;;5052380;28;20232;-72
2023/07/22 05:48:33;;;;;;;5.97;2.70;;;20.00;73.60;;;;;;5052436;28;20546;-72
2023/07/22 05:51:00;;;;;;;2.90;2.50;;;20.00;73.40;;;;;;5052553;28;20226;-72
2023/07/22 05:53:27;;;;;;;3.17;2.43;;;20.00;73.50;;;;;;5052606;28;20529;-72
2023/07/22 05:55:53;;;;;;;3.50;2.70;;;20.10;73.50;;;;;;5051668;28;20205;-72
2023/07/22 05:58:21;;;;;;;3.93;2.80;;;20.20;73.30;;;;;;5052168;28;20215;-72
2023/07/22 06:00:48;;;;;;;2.63;2.43;;;20.30;73.10;;;;;;5052540;28;20237;-71
2023/07/22 06:03:16;;;;;;;2.67;2.40;;;20.30;72.90;;;;;;5052226;28;20202;-72
2023/07/22 06:05:43;;;;;;;3.20;2.50;;;20.30;72.70;;;;;;5051736;28;20213;-72
2023/07/22 06:08:10;;;;;;;3.33;2.53;;;20.40;72.70;;;;;;5052242;28;20325;-72
2023/07/22 06:10:37;;;;;;;2.70;2.50;;;20.40;72.50;;;;;;5052340;28;20293;-72
2023/07/22 06:13:04;;;;;;;2.80;2.57;;;20.50;72.50;;;;;;5052407;28;20229;-72
2023/07/22 06:15:33;;;;;;;3.57;2.67;;;20.50;72.50;;;;;;5051829;28;20225;-72
2023/07/22 06:18:00;;;;;;;3.00;2.67;;;20.50;72.70;;;;;;5051542;28;20244;-71
2023/07/22 06:20:27;;;;;;;3.40;2.73;;;20.60;72.40;;;;;;5052364;28;20225;-72
2023/07/22 06:22:54;;;;;;;2.60;2.40;;;20.70;72.30;;;;;;5052310;28;20689;-72
2023/07/22 06:25:21;;;;;;;3.30;2.60;;;20.80;72.40;;;;;;5051739;28;20191;-71
2023/07/22 06:27:48;;;;;;;4.23;2.90;;;20.90;72.20;;;;;;5052169;28;20202;-72
2023/07/22 06:30:15;;;;;;;3.90;3.00;;;21.00;71.90;;;;;;5052558;28;20220;-72
2023/07/22 06:32:43;;;;;;;3.10;2.80;;;21.10;71.50;;;;;;5055756;28;20213;-72
2023/07/22 06:35:10;;;;;;;2.90;2.60;;;21.20;71.30;;;;;;5055715;28;20206;-72
2023/07/22 06:37:37;;;;;;;5.13;2.73;;;21.10;70.50;;;;;;5055822;28;20299;-72
2023/07/22 06:40:04;;;;;;;4.37;2.77;;;21.20;70.60;;;;;;5055538;28;20240;-72
2023/07/22 06:42:31;;;;;;;2.97;2.53;;;21.30;70.70;;;;;;5055691;28;20209;-72
2023/07/22 06:44:58;;;;;;;3.83;3.10;;;21.40;70.40;;;;;;5055596;28;20230;-72
2023/07/22 06:47:24;;;;;;;3.10;2.60;;;21.50;70.20;;;;;;5055370;28;20214;-72
2023/07/22 06:49:53;;;;;;;6.20;2.70;;;21.60;69.90;;;;;;5055524;28;20881;-72
2023/07/22 06:52:19;;;;;;;4.53;2.90;;;21.70;69.60;;;;;;5055502;28;20213;-72
2023/07/22 06:54:46;;;;;;;3.00;2.60;;;21.80;69.40;;;;;;5055304;28;20226;-71
2023/07/22 06:57:13;;;;;;;4.00;2.83;;;22.00;69.20;;;;;;5055320;28;20237;-72
2023/07/22 06:59:40;;;;;;;2.87;2.40;;;22.00;68.20;;;;;;5055519;28;20210;-72
2023/07/22 07:02:07;;;;;;;4.90;2.60;;;22.10;68.30;;;;;;5055572;28;20205;-71
2023/07/22 07:04:34;;;;;;;3.40;2.70;;;22.10;67.90;;;;;;5055388;28;20212;-72
2023/07/22 07:07:02;;;;;;;6.43;2.67;;;22.10;67.70;;;;;;5054794;28;20214;-72
2023/07/22 07:09:29;;;;;;;3.27;2.37;;;22.20;67.60;;;;;;5056263;28;20210;-72
2023/07/22 07:11:56;;;;;;;3.03;2.70;;;22.30;68.00;;;;;;5055983;28;20226;-72
2023/07/22 07:14:24;;;;;;;3.97;2.20;;;22.50;67.20;;;;;;5055846;28;20225;-72
2023/07/22 07:16:51;;;;;;;3.40;2.27;;;22.60;66.30;;;;;;5061099;28;20221;-72
2023/07/22 07:19:17;;;;;;;2.40;2.20;;;22.70;66.30;;;;;;5075700;28;20200;-73
2023/07/22 07:21:44;;;;;;;2.57;2.17;;;22.80;65.70;;;;;;5061214;28;20230;-71
2023/07/22 07:24:12;;;;;;;2.93;2.40;;;22.80;64.70;;;;;;5067664;28;20196;-72
2023/07/22 07:26:39;;;;;;;3.63;2.50;;;22.90;64.30;;;;;;5080039;28;20266;-72
2023/07/22 07:29:06;;;;;;;2.67;2.10;;;23.10;64.90;;;;;;5072396;28;20293;-71
2023/07/22 07:31:33;;;;;;;2.90;2.20;;;23.20;63.90;;;;;;5055852;28;20218;-72
2023/07/22 07:34:00;;;;;;;2.50;2.30;;;23.30;63.60;;;;;;5054799;28;20657;-72
2023/07/22 07:36:26;;;;;;;2.60;2.40;;;23.50;63.30;;;;;;5054274;28;20218;-72
2023/07/22 07:38:53;;;;;;;3.03;2.30;;;23.60;62.40;;;;;;5036725;28;20245;-72
2023/07/22 07:41:22;;;;;;;2.30;2.10;;;23.70;62.00;;;;;;5054419;28;20208;-72
2023/07/22 07:43:49;;;;;;;2.57;2.00;;;23.90;61.60;;;;;;5054301;28;20232;-72
2023/07/22 07:46:19;;;;;;;2.40;2.17;;;24.00;60.80;;;;;;5054322;28;20213;-72
2023/07/22 07:48:46;;;;;;;2.13;1.90;;;24.00;59.90;;;;;;5054034;28;20229;-72
2023/07/22 07:51:14;;;;;;;4.03;2.30;;;24.10;59.10;;;;;;5054290;28;20723;-72
2023/07/22 07:53:41;;;;;;;3.53;2.23;;;24.10;59.50;;;;;;5036928;28;20234;-71
2023/07/22 07:56:08;;;;;;;2.67;2.40;;;24.20;59.30;;;;;;5054219;28;20605;-71
2023/07/22 07:58:37;;;;;;;1.90;1.80;;;24.30;59.20;;;;;;5054334;28;20234;-72
2023/07/22 08:01:04;;;;;;;2.20;2.00;;;24.40;59.30;;;;;;5054369;28;20214;-72
2023/07/22 08:03:31;;;;;;;3.20;2.30;;;24.40;59.00;;;;;;5054194;28;20201;-72
2023/07/22 08:05:58;;;;;;;2.90;2.60;;;24.30;58.80;;;;;;5054032;28;20189;-72
2023/07/22 08:08:25;;;;;;;2.53;2.23;;;24.30;59.20;;;;;;5053997;28;20699;-72
2023/07/22 08:10:59;;;;;;;2.67;2.30;;;24.30;59.40;;;;;;5054280;28;20224;-72
2023/07/22 08:13:27;;;;;;;3.00;2.33;;;24.40;59.20;;;;;;5054352;28;20188;-71
2023/07/22 08:15:55;;;;;;;2.60;2.30;;;24.40;59.20;;;;;;5053556;28;20306;-72
2023/07/22 08:18:22;;;;;;;4.20;2.30;;;24.60;59.20;;;;;;5053254;28;20712;-72
2023/07/22 08:20:48;;;;;;;3.20;2.47;;;24.60;59.00;;;;;;5053810;28;20225;-72
2023/07/22 08:23:15;;;;;;;6.13;2.30;;;24.70;58.60;;;;;;5054088;28;20233;-71
2023/07/22 08:25:42;;;;;;;3.03;2.50;;;24.70;58.50;;;;;;5018325;28;20225;-72
2023/07/22 08:28:09;;;;;;;3.83;2.40;;;24.60;58.60;;;;;;5053718;28;20201;-72
2023/07/22 08:30:36;;;;;;;2.80;2.20;;;24.60;59.20;;;;;;5053815;28;20229;-72
2023/07/22 08:33:04;;;;;;;2.50;1.97;;;24.70;58.90;;;;;;5053500;28;20202;-72
2023/07/22 08:35:31;;;;;;;3.67;2.10;;;24.90;58.90;;;;;;5053408;28;20253;-71
2023/07/22 08:37:58;;;;;;;3.83;2.20;;;25.00;58.20;;;;;;5053543;28;20689;-72
2023/07/22 08:40:25;;;;;;;3.20;2.10;;;25.20;58.40;;;;;;5053592;28;20220;-72
2023/07/22 08:42:52;;;;;;;5.80;2.40;;;25.20;57.50;;;;;;5053117;28;20237;-72
2023/07/22 08:45:19;;;;;;;2.57;2.37;;;25.10;57.50;;;;;;5053111;28;20213;-72
2023/07/22 08:47:47;;;;;;;6.07;2.57;;;25.10;57.50;;;;;;5052276;28;20226;-71
2023/07/22 08:50:20;;;;;;;3.03;2.47;;;25.20;57.70;;;;;;5053184;28;20209;-72
2023/07/22 08:52:48;;;;;;;3.37;2.00;;;25.30;57.20;;;;;;5052863;28;20202;-72
2023/07/22 08:55:16;;;;;;;2.73;2.10;;;25.40;57.00;;;;;;5052991;28;20216;-72
2023/07/22 08:57:43;;;;;;;2.97;2.10;;;25.40;56.90;;;;;;5052931;28;20229;-72
2023/07/22 09:00:11;;;;;;;3.23;2.07;;;25.40;57.00;;;;;;5053115;28;20271;-72
2023/07/22 09:02:39;;;;;;;3.10;2.00;;;25.40;56.30;;;;;;5052751;28;20271;-72
2023/07/22 09:05:07;;;;;;;3.23;2.47;;;25.50;56.40;;;;;;5052875;28;20681;-72
2023/07/22 09:07:36;;;;;;;3.17;1.93;;;25.60;56.50;;;;;;5052533;28;20275;-72
2023/07/22 09:10:03;;;;;;;3.20;2.00;;;25.70;55.30;;;;;;5053323;28;20304;-72
2023/07/22 09:12:31;;;;;;;3.13;2.03;;;25.70;54.70;;;;;;5053225;28;20296;-71
2023/07/22 09:14:59;;;;;;;1.87;1.77;;;25.90;54.60;;;;;;5052655;28;20224;-72
2023/07/22 09:17:25;;;;;;;2.17;1.97;;;26.10;53.80;;;;;;5052532;28;20230;-72
2023/07/22 09:19:54;;;;;;;2.43;1.90;;;26.20;53.10;;;;;;5053030;28;20225;-72
2023/07/22 09:22:27;;;;;;;2.13;1.80;;;26.20;52.90;;;;;;5053130;28;20213;-72
2023/07/22 09:25:14;;;;;;;2.00;1.90;;;26.20;51.60;;;;;;5052694;28;20245;-72
2023/07/22 09:27:41;;;;;;;2.30;1.90;;;26.10;51.40;;;;;;5053053;28;20244;-72
2023/07/22 09:30:21;;;;;;;1.90;1.70;;;26.20;52.20;;;;;;5052785;28;20227;-72
2023/07/22 09:32:48;;;;;;;1.53;1.43;;;26.30;51.50;;;;;;5052998;28;20190;-71
2023/07/22 09:35:15;;;;;;;3.77;1.93;;;26.30;51.60;;;;;;5052537;28;20225;-72
2023/07/22 09:37:42;;;;;;;1.93;1.80;;;26.30;51.40;;;;;;5052673;28;20565;-72
2023/07/22 09:40:18;;;;;;;2.07;1.77;;;26.40;51.90;;;;;;5052562;28;20236;-72
2023/07/22 09:42:49;;;;;;;2.13;1.60;;;26.40;51.80;;;;;;5045511;28;20255;-71
2023/07/22 09:45:17;;;;;;;2.07;1.87;;;26.40;52.30;;;;;;5032151;28;20226;-71
2023/07/22 09:47:45;;;;;;;2.40;2.10;;;26.50;52.70;;;;;;5032609;28;20268;-71
2023/07/22 09:50:15;;;;;;;4.17;2.00;;;26.70;52.20;;;;;;5032846;28;20236;-71
2023/07/22 09:52:45;;;;;;;3.50;1.90;;;26.70;51.70;;;;;;5032916;28;20207;-71
2023/07/22 09:55:13;;;;;;;2.40;1.90;;;26.60;51.50;;;;;;5032061;28;20327;-72
2023/07/22 09:57:44;;;;;;;2.43;1.90;;;26.70;51.30;;;;;;5032767;28;20235;-71
2023/07/22 10:00:14;;;;;;;3.20;1.83;;;26.60;51.50;;;;;;5032168;28;20257;-72
2023/07/22 10:02:42;;;;;;;2.57;1.87;;;26.60;51.00;;;;;;5032634;28;20203;-71
2023/07/22 10:05:13;;;;;;;6.73;1.80;;;26.70;52.20;;;;;;5034495;28;20206;-72
2023/07/22 10:07:46;;;;;;;2.33;1.97;;;26.60;51.30;;;;;;5036611;28;20210;-72
2023/07/22 10:10:16;;;;;;;2.10;1.90;;;26.60;51.50;;;;;;5037098;28;20195;-71
2023/07/22 10:12:44;;;;;;;3.73;1.97;;;26.70;52.40;;;;;;5036808;28;20236;-71
2023/07/22 10:15:13;;;;;;;2.27;1.80;;;26.90;51.40;;;;;;5035993;28;20226;-71
2023/07/22 10:17:40;;;;;;;2.43;2.00;;;27.00;51.00;;;;;;5035865;28;20241;-71
2023/07/22 10:20:10;;;;;;;2.37;1.70;;;27.10;50.80;;;;;;5036327;28;20227;-71
2023/07/22 10:22:38;;;;;;;2.00;1.67;;;27.10;50.20;;;;;;5036442;28;20249;-72
2023/07/22 10:25:08;;;;;;;2.90;2.20;;;27.10;50.10;;;;;;5036459;28;20212;-71
2023/07/22 10:27:39;;;;;;;2.50;2.00;;;27.10;49.80;;;;;;5036049;28;20279;-71
2023/07/22 10:30:09;;;;;;;2.10;1.80;;;27.30;49.70;;;;;;5036177;28;20641;-71
2023/07/22 10:32:37;;;;;;;1.93;1.73;;;27.50;48.90;;;;;;5036175;28;20238;-72
2023/07/22 10:35:05;;;;;;;2.10;1.90;;;27.50;47.50;;;;;;5036121;28;20219;-72
2023/07/22 10:37:33;;;;;;;2.33;1.80;;;27.60;48.20;;;;;;5035918;28;20208;-72
2023/07/22 10:40:01;;;;;;;3.10;1.60;;;27.70;47.60;;;;;;5036739;28;20206;-71
2023/07/22 10:42:28;;;;;;;3.10;2.10;;;27.80;48.00;;;;;;5040916;28;20201;-71
2023/07/22 10:44:55;;;;;;;1.80;1.50;;;28.00;47.50;;;;;;5056928;28;20215;-72
2023/07/22 10:47:36;;;;;;;2.10;1.80;;;28.10;45.70;;;;;;5061688;28;20219;-72
2023/07/22 10:50:10;;;;;;;2.77;1.77;;;28.10;45.60;;;;;;5056028;28;20277;-71
2023/07/22 10:52:42;;;;;;;2.33;1.40;;;28.20;46.50;;;;;;5055607;28;20888;-71
2023/07/22 10:55:17;;;;;;;2.63;1.77;;;28.30;45.40;;;;;;5055328;28;20212;-72
2023/07/22 10:57:51;;;;;;;2.23;1.80;;;28.30;44.50;;;;;;5054666;28;20201;-71
2023/07/22 11:00:21;;;;;;;2.00;1.80;;;28.50;43.60;;;;;;5055840;28;20237;-71
2023/07/22 11:03:10;;;;;;;3.00;1.87;;;28.50;43.00;;;;;;5055380;28;20662;-71
2023/07/22 11:05:52;;;;;;;2.30;1.73;;;28.40;43.30;;;;;;5055451;28;20235;-71
2023/07/22 11:08:36;;;;;;;3.43;1.97;;;28.30;44.20;;;;;;5055172;28;20240;-72
2023/07/22 11:11:04;;;;;;;5.80;1.97;;;28.50;44.50;;;;;;5055270;28;20229;-71
2023/07/22 11:13:35;;;;;;;2.57;2.27;;;28.50;44.50;;;;;;5055409;28;20210;-72
2023/07/22 11:16:02;;;;;;;2.13;1.90;;;28.50;44.20;;;;;;5054073;28;20213;-71
2023/07/22 11:18:40;;;;;;;2.10;1.90;;;28.50;44.50;;;;;;5055082;28;20229;-71
2023/07/22 11:21:11;;;;;;;2.93;1.80;;;28.50;45.00;;;;;;5054852;28;20233;-71
2023/07/22 11:23:38;;;;;;;3.13;1.90;;;28.50;44.80;;;;;;5054984;28;20805;-72
2023/07/22 11:26:05;;;;;;;2.27;2.07;;;28.30;44.50;;;;;;5054539;28;20332;-72
2023/07/22 11:28:32;;;;;;;2.10;1.90;;;28.30;44.70;;;;;;5055062;28;20228;-72
2023/07/22 11:31:00;;;;;;;2.10;1.90;;;28.30;45.00;;;;;;5054769;28;20233;-72
2023/07/22 11:33:38;;;;;;;2.20;2.00;;;28.30;45.30;;;;;;5055040;28;20198;-71
2023/07/22 11:36:06;;;;;;;2.10;1.90;;;28.40;45.10;;;;;;5054870;28;20602;-72
2023/07/22 11:38:34;;;;;;;2.07;1.87;;;28.30;44.80;;;;;;5054641;28;20331;-72
2023/07/22 11:41:01;;;;;;;2.93;2.30;;;28.30;43.70;;;;;;5054228;28;20677;-71
2023/07/22 11:43:28;;;;;;;2.20;2.00;;;28.40;44.40;;;;;;5042024;28;20554;-71
2023/07/22 11:45:55;;;;;;;1.70;1.60;;;28.60;43.60;;;;;;5034645;28;20681;-71
2023/07/22 11:48:22;;;;;;;2.40;2.00;;;28.70;43.60;;;;;;5034713;28;20556;-71
2023/07/22 11:50:49;;;;;;;2.87;1.80;;;28.80;43.20;;;;;;4983393;28;20213;-71
2023/07/22 11:53:17;;;;;;;2.73;1.80;;;28.80;42.90;;;;;;5034663;28;20230;-71
2023/07/22 11:55:45;;;;;;;2.00;1.90;;;28.90;43.70;;;;;;5033951;28;20428;-71
2023/07/22 11:58:11;;;;;;;3.20;1.80;;;28.80;43.20;;;;;;5034286;28;20230;-71
2023/07/22 12:00:43;;;;;;;1.90;1.70;;;28.80;42.90;;;;;;5034094;28;20222;-72
2023/07/22 12:03:09;;;;;;;2.20;2.00;;;28.80;42.70;;;;;;5034253;28;20237;-71
2023/07/22 12:05:37;;;;;;;2.20;1.70;;;28.80;43.40;;;;;;5034149;28;20244;-71
2023/07/22 12:08:06;;;;;;;2.93;2.00;;;28.60;43.00;;;;;;5048564;28;20243;-71
2023/07/22 12:10:34;;;;;;;1.87;1.67;;;28.60;42.90;;;;;;5033435;28;20301;-71
2023/07/22 12:13:02;;;;;;;2.70;2.10;;;28.40;43.30;;;;;;5033654;28;20202;-71
2023/07/22 12:15:29;;;;;;;2.37;1.90;;;28.50;43.40;;;;;;5033648;28;20229;-72
2023/07/22 12:17:58;;;;;;;3.70;1.80;;;28.60;43.60;;;;;;5033654;28;20212;-71
2023/07/22 12:20:26;;;;;;;2.87;1.80;;;28.60;42.80;;;;;;4983668;28;20228;-72
2023/07/22 12:22:53;;;;;;;2.00;1.80;;;28.60;43.10;;;;;;5034194;28;20664;-72
2023/07/22 12:25:20;;;;;;;2.57;2.17;;;28.90;43.00;;;;;;5033597;28;20226;-71
2023/07/22 12:27:48;;;;;;;2.27;1.90;;;29.00;43.10;;;;;;5033566;28;20209;-71
2023/07/22 12:30:15;;;;;;;2.90;1.47;;;29.20;43.60;;;;;;5034071;28;20230;-71
2023/07/22 12:32:42;;;;;;;2.20;1.60;;;29.50;42.20;;;;;;5033794;28;20221;-72
2023/07/22 12:35:10;;;;;;;2.20;2.00;;;29.60;41.90;;;;;;5033779;28;20237;-71
2023/07/22 12:37:37;;;;;;;3.43;2.13;;;29.70;41.10;;;;;;5033517;28;20210;-71
2023/07/22 12:40:07;;;;;;;2.17;1.97;;;29.50;39.40;;;;;;5033360;28;20232;-72
2023/07/22 12:42:34;;;;;;;2.70;1.77;;;29.40;39.90;;;;;;5039383;28;20598;-72
2023/07/22 12:45:03;;;;;;;2.10;1.90;;;29.50;40.60;;;;;;5053698;28;20236;-72
2023/07/22 12:47:29;;;;;;;1.97;1.87;;;29.60;41.10;;;;;;5052946;28;20685;-72
2023/07/22 12:49:56;;;;;;;1.90;1.60;;;29.70;40.60;;;;;;5053283;28;20297;-72
2023/07/22 12:52:23;;;;;;;2.80;2.00;;;29.90;40.80;;;;;;5053735;28;20205;-72